Time;durP1;ratioP1;P1;durP2;ratioP2;P2;SDS_P1;SDS_P2;PMS_P1;PMS_P2;Temp;Humidity;BMP_temperature;BMP_pressure;BME280_temperature;BME280_humidity;BME280_pressure;Samples;Min_cycle;Max_cycle;Signal;HPM_P1;HPM_P2
2023/03/14 00:00:15;;;;;;;1.10;0.40;;;9.80;99.90;;;;;;5090733;28;20303;-72
2023/03/14 00:02:41;;;;;;;0.80;0.40;;;9.80;99.90;;;;;;5089242;28;20424;-72
2023/03/14 00:05:07;;;;;;;0.70;0.40;;;9.80;99.90;;;;;;5091008;28;20507;-73
2023/03/14 00:07:37;;;;;;;0.70;0.50;;;9.80;99.90;;;;;;5090657;28;20467;-73
2023/03/14 00:10:07;;;;;;;0.80;0.47;;;9.80;99.90;;;;;;5088601;28;20525;-73
2023/03/14 00:12:33;;;;;;;0.70;0.40;;;9.80;99.90;;;;;;5090450;28;20833;-72
2023/03/14 00:15:00;;;;;;;1.20;0.50;;;9.80;99.90;;;;;;5089217;28;20428;-71
2023/03/14 00:17:26;;;;;;;0.90;0.50;;;9.80;99.90;;;;;;5090739;28;20182;-72
2023/03/14 00:19:53;;;;;;;0.80;0.40;;;9.70;99.90;;;;;;5090300;28;20882;-72
2023/03/14 00:22:19;;;;;;;2.20;0.47;;;9.60;99.90;;;;;;5089020;28;20566;-72
2023/03/14 00:24:45;;;;;;;2.10;0.40;;;9.70;99.90;;;;;;5090397;28;20428;-72
2023/03/14 00:27:11;;;;;;;0.60;0.30;;;9.60;99.90;;;;;;5090456;28;20420;-72
2023/03/14 00:29:36;;;;;;;0.60;0.30;;;9.60;99.90;;;;;;5090285;28;20217;-71
2023/03/14 00:32:02;;;;;;;0.73;0.40;;;9.70;99.90;;;;;;5088766;28;20191;-71
2023/03/14 00:34:31;;;;;;;1.80;0.40;;;9.70;99.90;;;;;;5090268;28;20269;-72
2023/03/14 00:36:57;;;;;;;1.20;0.57;;;9.60;99.90;;;;;;5090116;28;20216;-71
2023/03/14 00:39:23;;;;;;;0.60;0.40;;;9.70;99.90;;;;;;5088835;28;20987;-72
2023/03/14 00:41:48;;;;;;;0.60;0.40;;;9.70;99.90;;;;;;5090243;28;20189;-72
2023/03/14 00:44:14;;;;;;;0.70;0.50;;;9.70;99.90;;;;;;5090345;28;20209;-72
2023/03/14 00:46:39;;;;;;;0.60;0.30;;;9.70;99.90;;;;;;5088575;28;20552;-72
2023/03/14 00:49:05;;;;;;;0.60;0.30;;;9.70;99.90;;;;;;5088735;28;20240;-72
2023/03/14 00:51:30;;;;;;;0.60;0.40;;;9.60;99.90;;;;;;5089963;28;20217;-72
2023/03/14 00:53:56;;;;;;;1.20;0.40;;;9.70;99.90;;;;;;5090098;28;20212;-72
2023/03/14 00:56:22;;;;;;;1.23;0.40;;;9.60;99.90;;;;;;5089894;28;20184;-72
2023/03/14 00:58:47;;;;;;;0.70;0.40;;;9.60;99.90;;;;;;5088111;28;20642;-72
2023/03/14 01:01:16;;;;;;;1.00;0.33;;;9.70;99.90;;;;;;5089951;28;20179;-70
2023/03/14 01:03:42;;;;;;;1.13;0.33;;;9.70;99.90;;;;;;5089764;28;20174;-71
2023/03/14 01:06:16;;;;;;;0.60;0.40;;;9.80;99.90;;;;;;5089606;28;20435;-71
2023/03/14 01:08:43;;;;;;;1.80;0.40;;;9.70;99.90;;;;;;5089085;28;20216;-71
2023/03/14 01:11:15;;;;;;;0.60;0.30;;;9.80;99.90;;;;;;5089218;28;20426;-72
2023/03/14 01:13:41;;;;;;;1.57;0.40;;;9.80;99.90;;;;;;5087779;28;20425;-72
2023/03/14 01:16:09;;;;;;;0.60;0.30;;;9.80;99.90;;;;;;5089203;28;20491;-71
2023/03/14 01:18:35;;;;;;;0.60;0.30;;;9.80;99.90;;;;;;5089482;28;20868;-71
2023/03/14 01:21:01;;;;;;;1.90;0.30;;;9.80;99.90;;;;;;5088750;28;20940;-72
2023/03/14 01:23:27;;;;;;;1.83;0.50;;;9.80;99.90;;;;;;5089604;28;20182;-73
2023/03/14 01:25:53;;;;;;;1.00;0.40;;;9.80;99.90;;;;;;5088367;28;20994;-72
2023/03/14 01:28:18;;;;;;;0.93;0.40;;;9.80;99.90;;;;;;5089318;28;20176;-73
2023/03/14 01:30:44;;;;;;;1.37;0.40;;;9.80;99.90;;;;;;5087835;28;20658;-73
2023/03/14 01:33:11;;;;;;;0.80;0.37;;;9.80;99.90;;;;;;5087922;28;20197;-73
2023/03/14 01:35:36;;;;;;;0.60;0.37;;;9.80;99.90;;;;;;5089198;28;20182;-73
2023/03/14 01:38:02;;;;;;;0.80;0.40;;;9.90;99.90;;;;;;5087492;28;20452;-73
2023/03/14 01:40:27;;;;;;;3.93;0.40;;;9.90;99.90;;;;;;5088854;28;20263;-73
2023/03/14 01:43:05;;;;;;;0.70;0.40;;;9.90;99.90;;;;;;5087538;28;20332;-73
2023/03/14 01:46:05;;;;;;;0.93;0.40;;;9.80;99.90;;;;;;5089325;28;20418;-72
2023/03/14 01:48:36;;;;;;;0.70;0.40;;;9.90;99.90;;;;;;5088797;28;20921;-72
2023/03/14 01:51:03;;;;;;;0.70;0.50;;;9.90;99.90;;;;;;5087254;28;20948;-72
2023/03/14 01:53:29;;;;;;;0.70;0.40;;;9.90;99.90;;;;;;5088885;28;20474;-72
2023/03/14 01:55:56;;;;;;;1.03;0.40;;;9.90;99.90;;;;;;5087348;28;20863;-72
2023/03/14 01:58:25;;;;;;;0.70;0.30;;;9.90;99.90;;;;;;5087355;28;20408;-72
2023/03/14 02:00:50;;;;;;;0.77;0.40;;;9.90;99.90;;;;;;5088759;28;20851;-72
2023/03/14 02:03:18;;;;;;;1.03;0.40;;;9.90;99.90;;;;;;5087314;28;20428;-72
2023/03/14 02:05:46;;;;;;;1.13;0.40;;;9.90;99.90;;;;;;5087224;28;20272;-72
2023/03/14 02:08:16;;;;;;;0.70;0.40;;;9.90;99.90;;;;;;5088665;28;20462;-72
2023/03/14 02:10:45;;;;;;;0.70;0.40;;;9.90;99.90;;;;;;5088648;28;20434;-72
2023/03/14 02:13:12;;;;;;;0.80;0.40;;;9.90;99.90;;;;;;5087393;28;20424;-72
2023/03/14 02:15:38;;;;;;;0.70;0.40;;;9.90;99.90;;;;;;5088828;28;20432;-72
2023/03/14 02:18:05;;;;;;;0.70;0.40;;;10.00;99.90;;;;;;5088684;28;20836;-72
2023/03/14 02:20:38;;;;;;;0.70;0.43;;;10.00;99.90;;;;;;5088719;28;20471;-72
2023/03/14 02:23:04;;;;;;;2.13;0.40;;;10.00;99.90;;;;;;5088444;28;20438;-72
2023/03/14 02:25:56;;;;;;;0.70;0.40;;;10.00;99.90;;;;;;5087223;28;20425;-72
2023/03/14 02:28:21;;;;;;;1.00;0.50;;;10.00;99.90;;;;;;5088787;28;20414;-73
2023/03/14 02:30:47;;;;;;;0.70;0.40;;;10.10;99.90;;;;;;5088713;28;20429;-72
2023/03/14 02:33:16;;;;;;;0.60;0.30;;;10.00;99.90;;;;;;5091517;28;20408;-72
2023/03/14 02:36:01;;;;;;;0.70;0.40;;;10.20;99.90;;;;;;5092734;28;20420;-72
2023/03/14 02:38:37;;;;;;;0.80;0.63;;;10.10;99.90;;;;;;5092319;28;21018;-72
2023/03/14 02:41:03;;;;;;;0.80;0.40;;;10.10;99.90;;;;;;5092269;28;20421;-72
2023/03/14 02:43:29;;;;;;;0.70;0.40;;;10.20;99.90;;;;;;5091062;28;20434;-72
2023/03/14 02:45:55;;;;;;;1.00;0.40;;;10.20;99.90;;;;;;5092285;28;20419;-72
2023/03/14 02:48:26;;;;;;;0.87;0.40;;;10.20;99.90;;;;;;5091052;28;20463;-72
2023/03/14 02:50:57;;;;;;;1.00;0.40;;;10.20;99.90;;;;;;5092650;28;20409;-72
2023/03/14 02:53:27;;;;;;;0.70;0.40;;;10.20;99.90;;;;;;5092517;28;20801;-73
2023/03/14 02:55:52;;;;;;;0.60;0.40;;;10.30;99.90;;;;;;5092961;28;20405;-72
2023/03/14 02:58:19;;;;;;;0.70;0.40;;;10.30;99.90;;;;;;5092162;28;20401;-72
2023/03/14 03:00:45;;;;;;;0.70;0.40;;;10.30;99.90;;;;;;5092419;28;20236;-73
2023/03/14 03:03:11;;;;;;;0.70;0.40;;;10.30;99.90;;;;;;5091389;28;20412;-73
2023/03/14 03:05:37;;;;;;;1.83;0.40;;;10.10;99.90;;;;;;5091091;28;20947;-72
2023/03/14 03:08:03;;;;;;;1.33;0.50;;;10.40;99.90;;;;;;5092543;28;20512;-73
2023/03/14 03:10:30;;;;;;;2.40;0.50;;;10.30;99.90;;;;;;5091051;28;20202;-73
2023/03/14 03:12:56;;;;;;;1.80;0.40;;;10.30;99.90;;;;;;5074335;28;20440;-73
2023/03/14 03:15:22;;;;;;;1.10;0.60;;;10.40;99.90;;;;;;5090967;28;20490;-73
2023/03/14 03:17:47;;;;;;;1.73;0.50;;;10.30;99.90;;;;;;5092573;28;20183;-73
2023/03/14 03:20:13;;;;;;;1.10;0.60;;;10.30;99.90;;;;;;5091343;28;20476;-73
2023/03/14 03:22:39;;;;;;;2.20;0.80;;;10.30;99.90;;;;;;5091922;28;20266;-72
2023/03/14 03:25:06;;;;;;;2.90;0.60;;;10.20;99.90;;;;;;5093115;28;20167;-72
2023/03/14 03:27:32;;;;;;;0.80;0.50;;;10.20;99.90;;;;;;5091682;28;20787;-72
2023/03/14 03:29:59;;;;;;;1.53;0.60;;;10.30;99.90;;;;;;5093142;28;20443;-73
2023/03/14 03:32:25;;;;;;;3.40;0.50;;;10.30;99.90;;;;;;5092959;28;20426;-72
2023/03/14 03:34:51;;;;;;;1.43;0.50;;;10.20;99.90;;;;;;5091799;28;20415;-72
2023/03/14 03:37:16;;;;;;;4.30;1.17;;;10.20;99.90;;;;;;5091513;28;20800;-73
2023/03/14 03:39:42;;;;;;;3.43;0.90;;;10.20;99.90;;;;;;5091463;28;20871;-72
2023/03/14 03:42:07;;;;;;;2.50;0.53;;;10.20;99.90;;;;;;5091186;28;20533;-72
2023/03/14 03:44:33;;;;;;;1.00;0.40;;;10.10;99.90;;;;;;5089099;28;20184;-73
2023/03/14 03:46:59;;;;;;;1.90;0.53;;;10.10;99.90;;;;;;5073167;28;20269;-73
2023/03/14 03:49:29;;;;;;;3.40;0.80;;;10.10;99.90;;;;;;5089645;28;20700;-72
2023/03/14 03:51:55;;;;;;;5.00;0.63;;;10.10;99.90;;;;;;5089934;28;20187;-72
2023/03/14 03:54:20;;;;;;;0.90;0.47;;;10.10;99.90;;;;;;5089524;28;20776;-72
2023/03/14 03:56:46;;;;;;;3.10;0.50;;;10.00;99.90;;;;;;5091107;28;20205;-72
2023/03/14 03:59:12;;;;;;;1.07;0.53;;;10.00;99.90;;;;;;5089218;28;20246;-71
2023/03/14 04:01:37;;;;;;;1.33;0.50;;;9.90;99.90;;;;;;5090913;28;20174;-72
2023/03/14 04:04:03;;;;;;;1.47;0.53;;;9.90;99.90;;;;;;5090706;28;20400;-72
2023/03/14 04:06:28;;;;;;;2.10;0.50;;;9.80;99.90;;;;;;5089520;28;20193;-72
2023/03/14 04:08:57;;;;;;;1.10;0.40;;;9.90;99.90;;;;;;5072273;28;20715;-72
2023/03/14 04:11:23;;;;;;;2.50;0.60;;;9.80;99.90;;;;;;5090401;28;20184;-72
2023/03/14 04:13:48;;;;;;;0.77;0.57;;;9.90;99.90;;;;;;5090425;28;20417;-73
2023/03/14 04:16:17;;;;;;;2.87;0.57;;;9.90;99.90;;;;;;5090536;28;20183;-72
2023/03/14 04:18:43;;;;;;;2.10;0.50;;;9.90;99.90;;;;;;5088881;28;20245;-72
2023/03/14 04:21:09;;;;;;;4.50;0.73;;;10.00;99.90;;;;;;5090486;28;20420;-72
2023/03/14 04:23:35;;;;;;;2.30;0.60;;;9.90;99.90;;;;;;5090430;28;20183;-72
2023/03/14 04:26:00;;;;;;;5.67;0.90;;;9.90;99.90;;;;;;5090484;28;20433;-72
2023/03/14 04:28:26;;;;;;;2.50;0.60;;;9.90;99.90;;;;;;5089220;28;20224;-72
2023/03/14 04:30:52;;;;;;;2.67;0.70;;;9.90;99.90;;;;;;5088988;28;20205;-72
2023/03/14 04:33:17;;;;;;;2.73;0.70;;;9.90;99.90;;;;;;5090496;28;20190;-72
2023/03/14 04:35:47;;;;;;;0.90;0.50;;;9.90;99.90;;;;;;5090256;28;20428;-72
2023/03/14 04:38:13;;;;;;;4.97;0.80;;;9.90;99.90;;;;;;5088580;28;20209;-72
2023/03/14 04:40:40;;;;;;;1.87;0.90;;;9.90;99.90;;;;;;5090750;28;20500;-73
2023/03/14 04:43:07;;;;;;;6.30;0.90;;;9.80;99.90;;;;;;5088766;28;20417;-71
2023/03/14 04:45:32;;;;;;;1.43;0.63;;;9.90;99.90;;;;;;5088570;28;20416;-71
2023/03/14 04:47:58;;;;;;;6.83;0.57;;;9.80;99.90;;;;;;5090026;28;20834;-73
2023/03/14 04:50:24;;;;;;;1.57;0.70;;;9.90;99.90;;;;;;5090586;28;20214;-72
2023/03/14 04:52:49;;;;;;;4.30;1.07;;;9.90;99.90;;;;;;5088458;28;20307;-72
2023/03/14 04:55:15;;;;;;;1.73;0.50;;;9.90;99.90;;;;;;5087843;28;20205;-72
2023/03/14 04:57:40;;;;;;;3.47;0.80;;;9.90;99.90;;;;;;5089632;28;20257;-72
2023/03/14 05:00:07;;;;;;;1.33;0.60;;;9.90;99.90;;;;;;5090052;28;20212;-73
2023/03/14 05:02:33;;;;;;;1.30;0.53;;;9.90;99.90;;;;;;5089744;28;20179;-73
2023/03/14 05:04:59;;;;;;;2.90;0.60;;;9.90;99.90;;;;;;5089848;28;20420;-73
2023/03/14 05:07:25;;;;;;;2.07;0.70;;;9.90;99.90;;;;;;5089382;28;20509;-72
2023/03/14 05:09:52;;;;;;;2.30;0.90;;;9.90;99.90;;;;;;5089034;28;20854;-71
2023/03/14 05:12:18;;;;;;;1.60;0.63;;;9.90;99.90;;;;;;5088994;28;20185;-72
2023/03/14 05:14:44;;;;;;;0.90;0.50;;;9.90;99.90;;;;;;5087583;28;20427;-72
2023/03/14 05:17:10;;;;;;;3.40;0.60;;;9.90;99.90;;;;;;5089022;28;20430;-73
2023/03/14 05:19:35;;;;;;;2.83;0.87;;;9.90;99.90;;;;;;5087337;28;20698;-72
2023/03/14 05:22:01;;;;;;;2.50;0.50;;;9.90;99.90;;;;;;5088874;28;20497;-72
2023/03/14 05:24:27;;;;;;;4.90;0.80;;;9.90;99.90;;;;;;5089398;28;20178;-72
2023/03/14 05:26:53;;;;;;;4.80;0.53;;;10.00;99.90;;;;;;5088691;28;20194;-73
2023/03/14 05:29:18;;;;;;;2.00;0.60;;;10.00;99.90;;;;;;5089035;28;20658;-73
2023/03/14 05:31:44;;;;;;;2.23;0.67;;;10.00;99.90;;;;;;5088605;28;20408;-72
2023/03/14 05:34:09;;;;;;;1.37;0.70;;;10.00;99.90;;;;;;5088641;28;20195;-73
2023/03/14 05:36:35;;;;;;;1.83;0.50;;;10.00;99.90;;;;;;5087086;28;20216;-72
2023/03/14 05:39:01;;;;;;;2.67;0.70;;;10.00;99.90;;;;;;5088437;28;20221;-72
2023/03/14 05:41:26;;;;;;;4.40;0.70;;;10.00;99.90;;;;;;5088451;28;20252;-72
2023/03/14 05:43:52;;;;;;;1.63;0.60;;;10.10;99.90;;;;;;5088480;28;20232;-72
2023/03/14 05:46:17;;;;;;;0.90;0.50;;;10.00;99.90;;;;;;5088542;28;20179;-71
2023/03/14 05:48:43;;;;;;;2.80;0.70;;;9.90;99.90;;;;;;5088504;28;20562;-71
2023/03/14 05:51:08;;;;;;;2.60;0.50;;;10.00;99.90;;;;;;5088071;28;20212;-72
2023/03/14 05:53:34;;;;;;;1.67;0.70;;;10.00;99.90;;;;;;5086935;28;20178;-71
2023/03/14 05:56:00;;;;;;;2.17;0.60;;;10.00;99.90;;;;;;5087022;28;20184;-72
2023/03/14 05:58:25;;;;;;;0.70;0.40;;;10.00;99.90;;;;;;5085335;28;20691;-72
2023/03/14 06:00:51;;;;;;;1.57;0.60;;;9.90;99.90;;;;;;5087214;28;20264;-71
2023/03/14 06:03:17;;;;;;;2.70;0.70;;;9.90;99.90;;;;;;5085305;28;20183;-71
2023/03/14 06:05:42;;;;;;;2.30;0.50;;;9.90;99.90;;;;;;5086924;28;20412;-71
2023/03/14 06:08:08;;;;;;;1.83;0.60;;;9.90;99.90;;;;;;5089821;28;20269;-71
2023/03/14 06:10:36;;;;;;;2.87;0.77;;;9.90;99.90;;;;;;5091112;28;20210;-72
2023/03/14 06:13:01;;;;;;;3.43;0.50;;;10.00;99.90;;;;;;5091608;28;20194;-72
2023/03/14 06:15:27;;;;;;;3.47;0.80;;;9.90;99.90;;;;;;5090992;28;20467;-71
2023/03/14 06:17:55;;;;;;;2.17;0.60;;;10.00;99.90;;;;;;5089813;28;20184;-71
2023/03/14 06:20:20;;;;;;;0.97;0.43;;;10.00;99.90;;;;;;5090702;28;20287;-72
2023/03/14 06:22:46;;;;;;;2.17;0.43;;;10.00;99.90;;;;;;5089437;28;20436;-72
2023/03/14 06:25:11;;;;;;;1.20;0.50;;;10.00;99.90;;;;;;5089744;28;20557;-71
2023/03/14 06:27:37;;;;;;;1.57;0.47;;;10.00;99.90;;;;;;5090917;28;20180;-72
2023/03/14 06:30:03;;;;;;;3.43;0.77;;;10.10;99.90;;;;;;5090668;28;20721;-71
2023/03/14 06:32:29;;;;;;;1.47;0.60;;;10.10;99.90;;;;;;5072672;28;20562;-72
2023/03/14 06:34:54;;;;;;;1.47;0.53;;;10.10;99.90;;;;;;5091868;28;20424;-72
2023/03/14 06:37:20;;;;;;;0.70;0.40;;;10.10;99.90;;;;;;5090894;28;20280;-72
2023/03/14 06:39:45;;;;;;;2.77;0.60;;;10.10;99.90;;;;;;5090518;28;20210;-72
2023/03/14 06:42:11;;;;;;;2.40;0.40;;;10.10;99.90;;;;;;5090838;28;20193;-71
2023/03/14 06:44:36;;;;;;;0.90;0.60;;;10.10;99.90;;;;;;5089336;28;20604;-72
2023/03/14 06:47:02;;;;;;;2.20;0.50;;;10.10;99.90;;;;;;5090677;28;20349;-72
2023/03/14 06:49:28;;;;;;;4.77;1.03;;;10.20;99.90;;;;;;5089260;28;20222;-72
2023/03/14 06:51:54;;;;;;;1.30;0.40;;;10.20;99.90;;;;;;5090580;28;20197;-71
2023/03/14 06:54:19;;;;;;;0.97;0.53;;;10.30;99.90;;;;;;5090455;28;20252;-72
2023/03/14 06:56:45;;;;;;;3.70;0.60;;;10.30;99.90;;;;;;5089345;28;20187;-72
2023/03/14 06:59:11;;;;;;;1.20;0.40;;;10.30;99.90;;;;;;5090201;28;20244;-72
2023/03/14 07:01:36;;;;;;;1.17;0.60;;;10.30;99.90;;;;;;5090534;28;20178;-72
2023/03/14 07:04:02;;;;;;;3.73;0.53;;;10.30;99.90;;;;;;5089074;28;20991;-72
2023/03/14 07:06:29;;;;;;;2.20;0.50;;;10.20;99.90;;;;;;5090321;28;20178;-72
2023/03/14 07:08:58;;;;;;;1.57;0.50;;;10.40;99.90;;;;;;5090403;28;20429;-71
2023/03/14 07:11:24;;;;;;;1.00;0.40;;;10.50;99.90;;;;;;5089214;28;20423;-71
2023/03/14 07:13:49;;;;;;;0.87;0.40;;;10.60;99.90;;;;;;5089441;28;21079;-72
2023/03/14 07:16:15;;;;;;;2.17;0.57;;;10.60;99.90;;;;;;5090870;28;20424;-72
2023/03/14 07:18:41;;;;;;;0.87;0.40;;;10.70;99.90;;;;;;5089963;28;20571;-72
2023/03/14 07:21:11;;;;;;;1.00;0.40;;;10.70;99.90;;;;;;5091266;28;20225;-72
2023/03/14 07:23:37;;;;;;;1.77;0.50;;;10.70;99.90;;;;;;5089865;28;20498;-72
2023/03/14 07:26:03;;;;;;;0.70;0.40;;;10.80;99.90;;;;;;5089865;28;20883;-72
2023/03/14 07:28:28;;;;;;;4.50;0.60;;;10.80;99.90;;;;;;5091140;28;20690;-72
2023/03/14 07:30:54;;;;;;;3.03;0.87;;;10.80;99.90;;;;;;5089804;28;20171;-72
2023/03/14 07:33:20;;;;;;;1.20;0.60;;;10.70;99.90;;;;;;5091402;28;20691;-71
2023/03/14 07:35:48;;;;;;;1.10;0.40;;;10.70;99.90;;;;;;5091589;28;20599;-72
2023/03/14 07:38:14;;;;;;;1.03;0.50;;;10.80;99.90;;;;;;5090079;28;20452;-72
2023/03/14 07:40:39;;;;;;;3.57;0.60;;;10.80;99.90;;;;;;5090122;28;20594;-72
2023/03/14 07:43:05;;;;;;;0.80;0.40;;;10.90;99.90;;;;;;5090102;28;20450;-72
2023/03/14 07:45:31;;;;;;;1.03;0.50;;;11.20;99.90;;;;;;5090220;28;20176;-71
2023/03/14 07:47:57;;;;;;;2.47;0.50;;;11.50;99.90;;;;;;5090204;28;20927;-72
2023/03/14 07:50:24;;;;;;;1.10;0.40;;;11.50;99.90;;;;;;5088537;28;20713;-72
2023/03/14 07:52:49;;;;;;;2.73;0.60;;;11.60;99.90;;;;;;5088770;28;20954;-72
2023/03/14 07:55:15;;;;;;;2.70;0.40;;;11.70;99.90;;;;;;5088799;28;20477;-71
2023/03/14 07:57:41;;;;;;;1.80;0.40;;;11.80;99.90;;;;;;5088374;28;20223;-71
2023/03/14 08:00:09;;;;;;;1.27;0.50;;;11.70;99.90;;;;;;5089549;28;20213;-72
2023/03/14 08:02:36;;;;;;;2.10;0.40;;;11.80;99.90;;;;;;5088213;28;20171;-71
2023/03/14 08:05:02;;;;;;;3.60;0.80;;;11.70;99.50;;;;;;5088543;28;20785;-71
2023/03/14 08:07:28;;;;;;;0.77;0.40;;;11.60;99.90;;;;;;5088612;28;20413;-71
2023/03/14 08:09:53;;;;;;;3.17;0.60;;;11.70;99.90;;;;;;5089971;28;20774;-71
2023/03/14 08:12:19;;;;;;;4.50;0.73;;;11.70;99.90;;;;;;5090465;28;20187;-71
2023/03/14 08:14:44;;;;;;;2.40;0.60;;;11.70;99.90;;;;;;5090004;28;20216;-71
2023/03/14 08:17:10;;;;;;;0.70;0.40;;;11.80;99.90;;;;;;5088539;28;20199;-71
2023/03/14 08:19:36;;;;;;;0.70;0.40;;;11.70;99.80;;;;;;5089641;28;20646;-71
2023/03/14 08:22:02;;;;;;;3.43;0.90;;;11.70;99.50;;;;;;5089571;28;20282;-71
2023/03/14 08:24:28;;;;;;;1.13;0.40;;;11.70;99.80;;;;;;5089591;28;20250;-71
2023/03/14 08:26:53;;;;;;;1.90;0.60;;;11.80;99.80;;;;;;5088647;28;20938;-71
2023/03/14 08:29:19;;;;;;;1.57;0.70;;;11.90;99.90;;;;;;5089483;28;20263;-71
2023/03/14 08:31:45;;;;;;;1.83;0.50;;;12.00;99.60;;;;;;5071108;28;20192;-71
2023/03/14 08:34:10;;;;;;;1.00;0.50;;;11.90;98.70;;;;;;5089783;28;20190;-71
2023/03/14 08:36:36;;;;;;;1.10;0.50;;;12.00;99.30;;;;;;5089318;28;20668;-72
2023/03/14 08:39:03;;;;;;;3.87;0.50;;;12.00;98.20;;;;;;5087842;28;20216;-72
2023/03/14 08:41:29;;;;;;;5.63;0.60;;;12.00;98.90;;;;;;5089301;28;20294;-72
2023/03/14 08:43:54;;;;;;;3.33;0.67;;;12.00;99.20;;;;;;5088883;28;20935;-71
2023/03/14 08:46:20;;;;;;;1.13;0.50;;;12.00;98.60;;;;;;5087502;28;20674;-72
2023/03/14 08:48:46;;;;;;;2.87;0.50;;;11.90;98.50;;;;;;5087365;28;20208;-72
2023/03/14 08:51:13;;;;;;;2.30;1.00;;;12.00;99.90;;;;;;5088696;28;20213;-71
2023/03/14 08:53:39;;;;;;;2.63;0.90;;;12.10;98.50;;;;;;5088669;28;20193;-71
2023/03/14 08:56:06;;;;;;;2.60;0.50;;;12.20;98.80;;;;;;5088515;28;20427;-72
2023/03/14 08:58:33;;;;;;;2.60;0.57;;;12.70;97.90;;;;;;5088476;28;20406;-72
2023/03/14 09:00:59;;;;;;;0.80;0.60;;;13.20;97.80;;;;;;5086669;28;20996;-72
2023/03/14 09:03:25;;;;;;;0.80;0.43;;;13.30;97.10;;;;;;5088165;28;20960;-71
2023/03/14 09:05:51;;;;;;;3.60;0.70;;;13.50;96.40;;;;;;5088279;28;20641;-71
2023/03/14 09:08:17;;;;;;;2.50;0.63;;;13.50;97.60;;;;;;5087962;28;20808;-71
2023/03/14 09:10:43;;;;;;;1.40;0.57;;;13.80;96.20;;;;;;5086876;28;20450;-71
2023/03/14 09:13:09;;;;;;;1.33;0.50;;;14.50;97.10;;;;;;5088097;28;20417;-71
2023/03/14 09:15:35;;;;;;;1.60;0.50;;;15.40;94.10;;;;;;5088407;28;20420;-71
2023/03/14 09:18:01;;;;;;;1.57;0.50;;;15.60;91.50;;;;;;5088096;28;20529;-72
2023/03/14 09:20:27;;;;;;;1.47;0.60;;;15.80;91.40;;;;;;5087904;28;20681;-72
2023/03/14 09:22:52;;;;;;;0.80;0.40;;;15.60;91.50;;;;;;5087781;28;20601;-72
2023/03/14 09:25:18;;;;;;;0.90;0.40;;;15.50;91.50;;;;;;5087687;28;20936;-72
2023/03/14 09:27:44;;;;;;;1.07;0.50;;;15.30;91.10;;;;;;5087868;28;20280;-72
2023/03/14 09:30:10;;;;;;;1.10;0.50;;;15.00;91.40;;;;;;5087786;28;20223;-71
2023/03/14 09:32:36;;;;;;;1.00;0.40;;;14.70;92.20;;;;;;5085978;28;20582;-71
2023/03/14 09:35:02;;;;;;;0.80;0.50;;;14.40;92.60;;;;;;5087567;28;20971;-71
2023/03/14 09:37:28;;;;;;;0.90;0.70;;;14.30;94.20;;;;;;5087600;28;20621;-71
2023/03/14 09:39:53;;;;;;;1.20;0.40;;;14.40;94.10;;;;;;5087761;28;20464;-71
2023/03/14 09:42:23;;;;;;;9.40;6.17;;;14.30;95.20;;;;;;5086095;28;20194;-71
2023/03/14 09:45:00;;;;;;;2.80;0.43;;;14.30;95.60;;;;;;5088255;28;20229;-72
2023/03/14 09:47:27;;;;;;;1.57;0.40;;;14.30;95.70;;;;;;5088205;28;20795;-72
2023/03/14 09:49:53;;;;;;;4.87;0.47;;;14.10;95.50;;;;;;5088360;28;21006;-72
2023/03/14 09:52:24;;;;;;;1.47;0.40;;;14.10;95.40;;;;;;5086804;28;20428;-72
2023/03/14 09:54:52;;;;;;;0.90;0.50;;;14.00;97.10;;;;;;5088119;28;20305;-71
2023/03/14 09:57:21;;;;;;;0.70;0.40;;;13.80;97.90;;;;;;5087719;28;20428;-71
2023/03/14 09:59:48;;;;;;;1.00;0.50;;;13.70;96.40;;;;;;5087091;28;20459;-71
2023/03/14 10:02:33;;;;;;;0.70;0.30;;;13.80;97.60;;;;;;5087303;28;20480;-72
2023/03/14 10:05:00;;;;;;;0.90;0.60;;;13.70;99.20;;;;;;5087072;28;20430;-71
2023/03/14 10:07:29;;;;;;;0.70;0.37;;;13.70;99.40;;;;;;5085861;28;20915;-72
2023/03/14 10:09:55;;;;;;;2.30;0.57;;;13.30;98.70;;;;;;5086970;28;20482;-72
2023/03/14 10:12:34;;;;;;;0.70;0.40;;;13.10;99.90;;;;;;5087140;28;20458;-72
2023/03/14 10:15:06;;;;;;;1.00;0.40;;;12.90;99.90;;;;;;5086813;28;20192;-71
2023/03/14 10:17:42;;;;;;;0.80;0.40;;;12.70;99.90;;;;;;5087002;28;20418;-71
2023/03/14 10:20:34;;;;;;;0.70;0.40;;;12.50;99.90;;;;;;5086995;28;20465;-71
2023/03/14 10:23:20;;;;;;;0.70;0.50;;;12.40;99.90;;;;;;5087164;28;20444;-71
2023/03/14 10:26:00;;;;;;;1.20;0.40;;;12.30;99.90;;;;;;5087110;28;20406;-72
2023/03/14 10:28:25;;;;;;;0.80;0.40;;;12.20;99.90;;;;;;5087094;28;20411;-72
2023/03/14 10:30:52;;;;;;;0.80;0.50;;;12.30;99.90;;;;;;5087063;28;20921;-72
2023/03/14 10:33:30;;;;;;;0.70;0.40;;;12.30;99.90;;;;;;5068974;28;20237;-72
2023/03/14 10:35:57;;;;;;;1.97;0.40;;;12.30;99.90;;;;;;5085400;28;20772;-72
2023/03/14 10:38:26;;;;;;;0.70;0.40;;;12.30;99.90;;;;;;5086400;28;20444;-71
2023/03/14 10:40:53;;;;;;;0.70;0.50;;;12.00;99.90;;;;;;5086540;28;21039;-72
2023/03/14 10:43:26;;;;;;;0.70;0.50;;;12.20;99.90;;;;;;5086764;28;20467;-71
2023/03/14 10:45:57;;;;;;;1.70;0.60;;;12.30;99.90;;;;;;5085246;28;20427;-71
2023/03/14 10:48:33;;;;;;;0.70;0.40;;;12.10;99.90;;;;;;5087080;28;20426;-71
2023/03/14 10:51:17;;;;;;;0.70;0.40;;;12.20;99.90;;;;;;5087177;28;20917;-71
2023/03/14 10:53:46;;;;;;;0.80;0.40;;;12.30;99.90;;;;;;5089790;28;20424;-71
2023/03/14 10:56:20;;;;;;;0.80;0.40;;;12.40;99.90;;;;;;5073005;28;20953;-71
2023/03/14 10:58:49;;;;;;;0.90;0.40;;;12.40;99.90;;;;;;5089399;28;20449;-73
2023/03/14 11:01:47;;;;;;;0.70;0.40;;;12.20;99.90;;;;;;5090487;28;20478;-72
2023/03/14 11:04:57;;;;;;;2.30;0.40;;;12.20;99.90;;;;;;5091351;28;20547;-72
2023/03/14 11:07:38;;;;;;;0.70;0.40;;;12.30;99.90;;;;;;5070142;28;20421;-72
2023/03/14 11:10:37;;;;;;;2.27;0.43;;;12.30;99.90;;;;;;5090456;28;20445;-72
2023/03/14 11:13:25;;;;;;;1.00;0.40;;;12.20;99.90;;;;;;5076234;28;20517;-72
2023/03/14 11:16:24;;;;;;;2.07;0.50;;;12.20;99.90;;;;;;5090295;28;20473;-71
2023/03/14 11:19:09;;;;;;;0.70;0.40;;;11.90;99.90;;;;;;5090168;28;20480;-72
2023/03/14 11:21:54;;;;;;;0.70;0.50;;;12.00;99.90;;;;;;5089096;28;20434;-71
2023/03/14 11:24:38;;;;;;;2.73;1.03;;;11.90;99.90;;;;;;5090745;28;20508;-71
2023/03/14 11:27:29;;;;;;;1.00;0.50;;;11.80;99.90;;;;;;5090113;28;20762;-71
2023/03/14 11:30:06;;;;;;;1.43;0.40;;;11.50;99.90;;;;;;5090431;28;20425;-72
2023/03/14 11:33:07;;;;;;;1.07;0.40;;;11.40;99.90;;;;;;5090199;28;20410;-71
2023/03/14 11:35:37;;;;;;;2.17;0.60;;;11.10;99.90;;;;;;5044772;28;20425;-72
2023/03/14 11:38:10;;;;;;;1.43;0.40;;;11.00;99.90;;;;;;5090237;28;20503;-71
2023/03/14 11:40:38;;;;;;;0.83;0.57;;;10.90;99.90;;;;;;5090015;28;20479;-72
2023/03/14 11:43:26;;;;;;;0.70;0.40;;;10.90;99.90;;;;;;5088841;28;21110;-72
2023/03/14 11:45:58;;;;;;;0.80;0.40;;;10.70;99.90;;;;;;5090147;28;20409;-71
2023/03/14 11:49:02;;;;;;;0.80;0.60;;;10.70;99.90;;;;;;5090079;28;20414;-72
2023/03/14 11:51:39;;;;;;;1.03;0.40;;;10.70;99.90;;;;;;5075745;28;20969;-72
2023/03/14 11:54:14;;;;;;;0.60;0.40;;;10.60;99.90;;;;;;5090715;28;20409;-72
2023/03/14 11:57:03;;;;;;;1.37;0.40;;;10.50;99.90;;;;;;5090125;28;20918;-72
2023/03/14 11:59:33;;;;;;;0.70;0.40;;;10.60;99.90;;;;;;5090026;28;20461;-71
2023/03/14 12:02:05;;;;;;;0.70;0.40;;;10.30;99.90;;;;;;5088366;28;20419;-72
2023/03/14 12:04:43;;;;;;;3.43;0.50;;;10.10;99.90;;;;;;5087347;28;20952;-71
2023/03/14 12:07:20;;;;;;;1.10;0.50;;;10.30;99.90;;;;;;5089200;28;20411;-71
2023/03/14 12:09:48;;;;;;;0.60;0.40;;;10.40;99.90;;;;;;5088940;28;20443;-71
2023/03/14 12:12:23;;;;;;;0.80;0.40;;;10.10;99.90;;;;;;5089150;28;20462;-71
2023/03/14 12:15:01;;;;;;;0.70;0.40;;;10.20;99.90;;;;;;5087556;28;20499;-71
2023/03/14 12:17:43;;;;;;;0.80;0.50;;;10.30;99.90;;;;;;5089074;28;20416;-71
2023/03/14 12:20:11;;;;;;;1.77;0.50;;;10.40;99.90;;;;;;5087496;28;20456;-72
2023/03/14 12:22:45;;;;;;;0.67;0.43;;;10.40;99.90;;;;;;5088750;28;20413;-72
2023/03/14 12:25:10;;;;;;;0.97;0.50;;;10.30;99.90;;;;;;5088637;28;20405;-72
2023/03/14 12:27:43;;;;;;;0.70;0.40;;;10.30;99.90;;;;;;5088784;28;20419;-72
2023/03/14 12:30:27;;;;;;;1.27;1.17;;;10.30;99.90;;;;;;5089084;28;20196;-72
2023/03/14 12:33:18;;;;;;;0.80;0.50;;;10.30;99.90;;;;;;5089262;28;20429;-72
2023/03/14 12:35:52;;;;;;;2.07;0.40;;;10.10;99.90;;;;;;5079997;28;20437;-72
2023/03/14 12:38:36;;;;;;;1.07;0.53;;;10.00;99.90;;;;;;5087983;28;20530;-73
2023/03/14 12:41:06;;;;;;;2.30;0.60;;;9.80;99.90;;;;;;5089185;28;20873;-72
2023/03/14 12:43:34;;;;;;;11.80;0.90;;;9.80;99.90;;;;;;5089392;28;20415;-71
2023/03/14 12:46:18;;;;;;;0.80;0.50;;;9.80;99.90;;;;;;5089281;28;20916;-72
2023/03/14 12:49:05;;;;;;;1.10;0.40;;;9.70;99.90;;;;;;5089131;28;20437;-72
2023/03/14 12:51:43;;;;;;;2.53;0.50;;;9.70;99.90;;;;;;5087511;28;21120;-71
2023/03/14 12:54:53;;;;;;;2.73;0.80;;;9.70;99.90;;;;;;5087547;28;20434;-72
2023/03/14 12:57:41;;;;;;;0.60;0.40;;;9.80;99.90;;;;;;5084861;28;20539;-72
2023/03/14 13:00:33;;;;;;;0.60;0.40;;;9.90;99.90;;;;;;5088919;28;20492;-72